sensor_id;sensor_type;location;lat;lon;timestamp;P1;durP1;ratioP1;P2;durP2;ratioP2
5722;SDS011;2886;49.722;8.612;2023-08-06T00:02:23;9.50;;;3.43;;
5722;SDS011;2886;49.722;8.612;2023-08-06T00:04:49;5.60;;;2.90;;
5722;SDS011;2886;49.722;8.612;2023-08-06T00:07:14;4.00;;;3.33;;
5722;SDS011;2886;49.722;8.612;2023-08-06T00:09:41;4.37;;;3.03;;
5722;SDS011;2886;49.722;8.612;2023-08-06T00:12:07;5.47;;;2.87;;
5722;SDS011;2886;49.722;8.612;2023-08-06T00:14:32;8.43;;;3.80;;
5722;SDS011;2886;49.722;8.612;2023-08-06T00:16:58;4.13;;;3.10;;
5722;SDS011;2886;49.722;8.612;2023-08-06T00:19:24;6.10;;;2.83;;
5722;SDS011;2886;49.722;8.612;2023-08-06T00:21:50;5.20;;;2.90;;
5722;SDS011;2886;49.722;8.612;2023-08-06T00:24:15;8.40;;;3.00;;
5722;SDS011;2886;49.722;8.612;2023-08-06T00:26:41;3.93;;;2.73;;
5722;SDS011;2886;49.722;8.612;2023-08-06T00:29:06;4.13;;;2.80;;
5722;SDS011;2886;49.722;8.612;2023-08-06T00:31:32;3.70;;;2.67;;
5722;SDS011;2886;49.722;8.612;2023-08-06T00:33:58;4.20;;;2.70;;
5722;SDS011;2886;49.722;8.612;2023-08-06T00:36:23;9.03;;;3.30;;
5722;SDS011;2886;49.722;8.612;2023-08-06T00:38:50;2.90;;;2.60;;
5722;SDS011;2886;49.722;8.612;2023-08-06T00:41:15;5.27;;;2.90;;
5722;SDS011;2886;49.722;8.612;2023-08-06T00:43:41;5.37;;;2.67;;
5722;SDS011;2886;49.722;8.612;2023-08-06T00:46:07;4.23;;;2.70;;
5722;SDS011;2886;49.722;8.612;2023-08-06T00:48:32;6.40;;;2.70;;
5722;SDS011;2886;49.722;8.612;2023-08-06T00:50:58;3.70;;;2.97;;
5722;SDS011;2886;49.722;8.612;2023-08-06T00:53:25;3.20;;;2.77;;
5722;SDS011;2886;49.722;8.612;2023-08-06T00:55:50;6.10;;;2.60;;
5722;SDS011;2886;49.722;8.612;2023-08-06T00:58:16;7.53;;;2.70;;
5722;SDS011;2886;49.722;8.612;2023-08-06T01:00:42;3.30;;;3.00;;
5722;SDS011;2886;49.722;8.612;2023-08-06T01:03:08;4.17;;;2.90;;
5722;SDS011;2886;49.722;8.612;2023-08-06T01:05:34;7.77;;;2.70;;
5722;SDS011;2886;49.722;8.612;2023-08-06T01:13:41;4.27;;;2.90;;
5722;SDS011;2886;49.722;8.612;2023-08-06T01:16:14;3.20;;;2.67;;
5722;SDS011;2886;49.722;8.612;2023-08-06T01:18:42;2.20;;;2.00;;
5722;SDS011;2886;49.722;8.612;2023-08-06T01:21:11;3.10;;;2.70;;
5722;SDS011;2886;49.722;8.612;2023-08-06T01:23:40;3.47;;;2.73;;
5722;SDS011;2886;49.722;8.612;2023-08-06T01:26:26;5.90;;;2.50;;
5722;SDS011;2886;49.722;8.612;2023-08-06T01:29:06;3.30;;;2.30;;
5722;SDS011;2886;49.722;8.612;2023-08-06T01:31:37;3.27;;;2.57;;
5722;SDS011;2886;49.722;8.612;2023-08-06T01:34:09;3.57;;;2.40;;
5722;SDS011;2886;49.722;8.612;2023-08-06T01:36:41;5.37;;;2.17;;
5722;SDS011;2886;49.722;8.612;2023-08-06T01:39:07;3.57;;;2.07;;
5722;SDS011;2886;49.722;8.612;2023-08-06T01:41:32;2.80;;;2.20;;
5722;SDS011;2886;49.722;8.612;2023-08-06T01:43:58;4.10;;;2.20;;
5722;SDS011;2886;49.722;8.612;2023-08-06T01:46:23;3.03;;;2.37;;
5722;SDS011;2886;49.722;8.612;2023-08-06T01:48:49;2.57;;;2.10;;
5722;SDS011;2886;49.722;8.612;2023-08-06T01:51:15;3.33;;;2.30;;
5722;SDS011;2886;49.722;8.612;2023-08-06T01:53:40;3.07;;;2.40;;
5722;SDS011;2886;49.722;8.612;2023-08-06T01:56:06;6.13;;;2.10;;
5722;SDS011;2886;49.722;8.612;2023-08-06T01:58:31;3.63;;;2.40;;
5722;SDS011;2886;49.722;8.612;2023-08-06T02:00:57;2.90;;;2.17;;
5722;SDS011;2886;49.722;8.612;2023-08-06T02:03:23;2.77;;;2.07;;
5722;SDS011;2886;49.722;8.612;2023-08-06T02:05:48;4.83;;;2.43;;
5722;SDS011;2886;49.722;8.612;2023-08-06T02:08:14;2.43;;;2.10;;
5722;SDS011;2886;49.722;8.612;2023-08-06T02:10:40;3.17;;;2.50;;
5722;SDS011;2886;49.722;8.612;2023-08-06T02:13:06;6.17;;;2.40;;
5722;SDS011;2886;49.722;8.612;2023-08-06T02:15:32;7.17;;;2.30;;
5722;SDS011;2886;49.722;8.612;2023-08-06T02:17:58;7.00;;;2.17;;
5722;SDS011;2886;49.722;8.612;2023-08-06T02:20:23;3.30;;;2.50;;
5722;SDS011;2886;49.722;8.612;2023-08-06T02:22:49;4.50;;;2.50;;
5722;SDS011;2886;49.722;8.612;2023-08-06T02:25:14;5.07;;;2.30;;
5722;SDS011;2886;49.722;8.612;2023-08-06T02:30:10;2.70;;;2.23;;
5722;SDS011;2886;49.722;8.612;2023-08-06T02:32:35;2.20;;;2.00;;
5722;SDS011;2886;49.722;8.612;2023-08-06T02:35:01;2.70;;;2.00;;
5722;SDS011;2886;49.722;8.612;2023-08-06T02:37:27;2.53;;;2.30;;
5722;SDS011;2886;49.722;8.612;2023-08-06T02:39:53;5.30;;;2.07;;
5722;SDS011;2886;49.722;8.612;2023-08-06T02:42:18;4.73;;;2.50;;
5722;SDS011;2886;49.722;8.612;2023-08-06T02:44:44;2.37;;;2.17;;
5722;SDS011;2886;49.722;8.612;2023-08-06T02:47:09;6.03;;;2.50;;
5722;SDS011;2886;49.722;8.612;2023-08-06T02:49:35;3.83;;;2.37;;
5722;SDS011;2886;49.722;8.612;2023-08-06T02:52:00;5.20;;;2.30;;
5722;SDS011;2886;49.722;8.612;2023-08-06T02:54:26;3.77;;;2.23;;
5722;SDS011;2886;49.722;8.612;2023-08-06T02:56:52;2.40;;;2.20;;
5722;SDS011;2886;49.722;8.612;2023-08-06T02:59:17;2.63;;;2.07;;
5722;SDS011;2886;49.722;8.612;2023-08-06T03:01:43;2.63;;;2.10;;
5722;SDS011;2886;49.722;8.612;2023-08-06T03:04:09;4.30;;;2.40;;
5722;SDS011;2886;49.722;8.612;2023-08-06T03:06:34;3.20;;;2.27;;
5722;SDS011;2886;49.722;8.612;2023-08-06T03:09:00;2.67;;;2.20;;
5722;SDS011;2886;49.722;8.612;2023-08-06T03:11:25;2.67;;;2.47;;
5722;SDS011;2886;49.722;8.612;2023-08-06T03:13:51;3.83;;;2.67;;
5722;SDS011;2886;49.722;8.612;2023-08-06T03:16:17;5.70;;;2.40;;
5722;SDS011;2886;49.722;8.612;2023-08-06T03:18:43;4.80;;;2.40;;
5722;SDS011;2886;49.722;8.612;2023-08-06T03:21:08;2.90;;;2.40;;
5722;SDS011;2886;49.722;8.612;2023-08-06T03:23:34;4.37;;;2.57;;
5722;SDS011;2886;49.722;8.612;2023-08-06T03:26:02;2.77;;;1.97;;
5722;SDS011;2886;49.722;8.612;2023-08-06T03:28:28;3.00;;;2.53;;
5722;SDS011;2886;49.722;8.612;2023-08-06T03:31:00;6.10;;;2.20;;
5722;SDS011;2886;49.722;8.612;2023-08-06T03:33:29;3.87;;;2.60;;
5722;SDS011;2886;49.722;8.612;2023-08-06T03:35:55;2.60;;;2.23;;
5722;SDS011;2886;49.722;8.612;2023-08-06T03:38:21;5.10;;;2.03;;
5722;SDS011;2886;49.722;8.612;2023-08-06T03:40:47;6.13;;;2.50;;
5722;SDS011;2886;49.722;8.612;2023-08-06T03:43:13;4.43;;;2.40;;
5722;SDS011;2886;49.722;8.612;2023-08-06T03:45:40;3.27;;;2.50;;
5722;SDS011;2886;49.722;8.612;2023-08-06T03:48:06;13.03;;;2.40;;
5722;SDS011;2886;49.722;8.612;2023-08-06T03:50:32;3.00;;;2.33;;
5722;SDS011;2886;49.722;8.612;2023-08-06T03:52:57;2.50;;;2.00;;
5722;SDS011;2886;49.722;8.612;2023-08-06T03:55:24;4.23;;;2.53;;
5722;SDS011;2886;49.722;8.612;2023-08-06T03:57:50;3.93;;;2.27;;
5722;SDS011;2886;49.722;8.612;2023-08-06T04:00:16;4.50;;;2.27;;
5722;SDS011;2886;49.722;8.612;2023-08-06T04:02:41;4.27;;;2.10;;
5722;SDS011;2886;49.722;8.612;2023-08-06T04:05:07;3.33;;;2.33;;
5722;SDS011;2886;49.722;8.612;2023-08-06T04:07:33;2.50;;;2.13;;
5722;SDS011;2886;49.722;8.612;2023-08-06T04:10:00;2.43;;;2.20;;
5722;SDS011;2886;49.722;8.612;2023-08-06T04:12:27;6.20;;;2.33;;
5722;SDS011;2886;49.722;8.612;2023-08-06T04:14:54;4.07;;;2.10;;
5722;SDS011;2886;49.722;8.612;2023-08-06T04:17:21;9.53;;;2.53;;
5722;SDS011;2886;49.722;8.612;2023-08-06T04:19:48;3.37;;;2.17;;
5722;SDS011;2886;49.722;8.612;2023-08-06T04:22:15;8.17;;;2.03;;
5722;SDS011;2886;49.722;8.612;2023-08-06T04:24:41;4.43;;;2.40;;
5722;SDS011;2886;49.722;8.612;2023-08-06T04:27:08;2.70;;;2.10;;
5722;SDS011;2886;49.722;8.612;2023-08-06T04:29:34;6.20;;;2.13;;
5722;SDS011;2886;49.722;8.612;2023-08-06T04:32:00;4.43;;;2.00;;
5722;SDS011;2886;49.722;8.612;2023-08-06T04:34:25;2.07;;;1.80;;
5722;SDS011;2886;49.722;8.612;2023-08-06T04:36:51;5.10;;;2.00;;
5722;SDS011;2886;49.722;8.612;2023-08-06T04:39:16;7.57;;;2.10;;
5722;SDS011;2886;49.722;8.612;2023-08-06T04:41:42;2.63;;;1.87;;
5722;SDS011;2886;49.722;8.612;2023-08-06T04:44:07;6.23;;;1.90;;
5722;SDS011;2886;49.722;8.612;2023-08-06T04:46:33;7.03;;;2.17;;
5722;SDS011;2886;49.722;8.612;2023-08-06T04:48:59;3.60;;;1.93;;
5722;SDS011;2886;49.722;8.612;2023-08-06T04:51:24;6.87;;;2.13;;
5722;SDS011;2886;49.722;8.612;2023-08-06T04:53:52;1.97;;;1.77;;
5722;SDS011;2886;49.722;8.612;2023-08-06T04:56:17;2.50;;;2.00;;
5722;SDS011;2886;49.722;8.612;2023-08-06T04:58:43;3.40;;;2.13;;
5722;SDS011;2886;49.722;8.612;2023-08-06T05:01:09;3.67;;;2.00;;
5722;SDS011;2886;49.722;8.612;2023-08-06T05:03:34;2.57;;;1.90;;
5722;SDS011;2886;49.722;8.612;2023-08-06T05:06:00;17.37;;;2.43;;
5722;SDS011;2886;49.722;8.612;2023-08-06T05:08:25;8.50;;;2.17;;
5722;SDS011;2886;49.722;8.612;2023-08-06T05:10:51;3.23;;;2.17;;
5722;SDS011;2886;49.722;8.612;2023-08-06T05:13:17;3.97;;;2.37;;
5722;SDS011;2886;49.722;8.612;2023-08-06T05:15:42;3.40;;;2.07;;
5722;SDS011;2886;49.722;8.612;2023-08-06T05:18:10;3.00;;;2.17;;
5722;SDS011;2886;49.722;8.612;2023-08-06T05:20:37;3.93;;;2.10;;
5722;SDS011;2886;49.722;8.612;2023-08-06T05:23:03;4.23;;;2.33;;
5722;SDS011;2886;49.722;8.612;2023-08-06T05:25:29;2.47;;;2.10;;
5722;SDS011;2886;49.722;8.612;2023-08-06T05:27:55;2.50;;;2.07;;
5722;SDS011;2886;49.722;8.612;2023-08-06T05:30:20;3.40;;;1.93;;
5722;SDS011;2886;49.722;8.612;2023-08-06T05:32:46;4.10;;;2.00;;
5722;SDS011;2886;49.722;8.612;2023-08-06T05:35:12;3.30;;;2.20;;
5722;SDS011;2886;49.722;8.612;2023-08-06T05:37:38;2.63;;;2.10;;
5722;SDS011;2886;49.722;8.612;2023-08-06T05:40:03;2.70;;;1.50;;
5722;SDS011;2886;49.722;8.612;2023-08-06T05:42:29;2.67;;;1.90;;
5722;SDS011;2886;49.722;8.612;2023-08-06T05:44:55;2.60;;;1.50;;
5722;SDS011;2886;49.722;8.612;2023-08-06T05:47:21;11.20;;;1.40;;
5722;SDS011;2886;49.722;8.612;2023-08-06T05:49:47;5.13;;;1.80;;
5722;SDS011;2886;49.722;8.612;2023-08-06T05:52:12;3.83;;;1.57;;
5722;SDS011;2886;49.722;8.612;2023-08-06T05:54:38;4.50;;;1.60;;
5722;SDS011;2886;49.722;8.612;2023-08-06T05:57:05;4.13;;;1.70;;
5722;SDS011;2886;49.722;8.612;2023-08-06T05:59:31;1.73;;;1.50;;
5722;SDS011;2886;49.722;8.612;2023-08-06T06:01:57;2.00;;;1.43;;
5722;SDS011;2886;49.722;8.612;2023-08-06T06:04:25;2.37;;;1.40;;
5722;SDS011;2886;49.722;8.612;2023-08-06T06:06:50;2.27;;;1.50;;
5722;SDS011;2886;49.722;8.612;2023-08-06T06:09:16;6.57;;;1.50;;
5722;SDS011;2886;49.722;8.612;2023-08-06T06:11:42;2.70;;;1.30;;
5722;SDS011;2886;49.722;8.612;2023-08-06T06:14:07;1.37;;;1.27;;
5722;SDS011;2886;49.722;8.612;2023-08-06T06:16:33;8.87;;;1.60;;
5722;SDS011;2886;49.722;8.612;2023-08-06T06:18:59;4.87;;;1.63;;
5722;SDS011;2886;49.722;8.612;2023-08-06T06:21:25;2.50;;;1.30;;
5722;SDS011;2886;49.722;8.612;2023-08-06T06:23:50;4.37;;;1.80;;
5722;SDS011;2886;49.722;8.612;2023-08-06T06:26:19;4.10;;;1.40;;
5722;SDS011;2886;49.722;8.612;2023-08-06T06:28:45;2.63;;;1.20;;
5722;SDS011;2886;49.722;8.612;2023-08-06T06:31:10;4.40;;;1.33;;
5722;SDS011;2886;49.722;8.612;2023-08-06T06:33:36;3.87;;;1.67;;
5722;SDS011;2886;49.722;8.612;2023-08-06T06:36:02;1.77;;;1.40;;
5722;SDS011;2886;49.722;8.612;2023-08-06T06:38:33;3.00;;;1.63;;
5722;SDS011;2886;49.722;8.612;2023-08-06T06:40:59;1.40;;;1.10;;
5722;SDS011;2886;49.722;8.612;2023-08-06T06:43:25;1.77;;;1.20;;
5722;SDS011;2886;49.722;8.612;2023-08-06T06:45:57;2.17;;;1.43;;
5722;SDS011;2886;49.722;8.612;2023-08-06T06:48:27;2.87;;;1.47;;
5722;SDS011;2886;49.722;8.612;2023-08-06T06:50:54;3.10;;;1.23;;
5722;SDS011;2886;49.722;8.612;2023-08-06T06:53:19;1.73;;;1.53;;
5722;SDS011;2886;49.722;8.612;2023-08-06T06:55:45;1.63;;;1.37;;
5722;SDS011;2886;49.722;8.612;2023-08-06T06:58:14;2.77;;;1.50;;
5722;SDS011;2886;49.722;8.612;2023-08-06T07:00:41;4.50;;;1.53;;
5722;SDS011;2886;49.722;8.612;2023-08-06T07:03:07;8.57;;;1.40;;
5722;SDS011;2886;49.722;8.612;2023-08-06T07:05:32;1.27;;;1.07;;
5722;SDS011;2886;49.722;8.612;2023-08-06T07:07:58;2.27;;;1.30;;
5722;SDS011;2886;49.722;8.612;2023-08-06T07:10:23;2.80;;;1.30;;
5722;SDS011;2886;49.722;8.612;2023-08-06T07:12:50;4.20;;;1.23;;
5722;SDS011;2886;49.722;8.612;2023-08-06T07:15:16;5.07;;;1.20;;
5722;SDS011;2886;49.722;8.612;2023-08-06T07:17:42;5.00;;;1.80;;
5722;SDS011;2886;49.722;8.612;2023-08-06T07:20:08;3.90;;;1.20;;
5722;SDS011;2886;49.722;8.612;2023-08-06T07:22:34;2.07;;;1.20;;
5722;SDS011;2886;49.722;8.612;2023-08-06T07:25:00;2.80;;;1.20;;
5722;SDS011;2886;49.722;8.612;2023-08-06T07:27:26;2.57;;;1.13;;
5722;SDS011;2886;49.722;8.612;2023-08-06T07:29:52;2.33;;;1.27;;
5722;SDS011;2886;49.722;8.612;2023-08-06T07:32:18;2.30;;;1.20;;
5722;SDS011;2886;49.722;8.612;2023-08-06T07:34:44;1.50;;;1.10;;
5722;SDS011;2886;49.722;8.612;2023-08-06T07:37:09;2.23;;;1.40;;
5722;SDS011;2886;49.722;8.612;2023-08-06T07:39:35;2.10;;;1.20;;
5722;SDS011;2886;49.722;8.612;2023-08-06T07:42:03;1.83;;;1.07;;
5722;SDS011;2886;49.722;8.612;2023-08-06T07:44:30;9.27;;;1.20;;
5722;SDS011;2886;49.722;8.612;2023-08-06T07:46:58;1.97;;;1.00;;
5722;SDS011;2886;49.722;8.612;2023-08-06T07:49:24;2.30;;;1.20;;
5722;SDS011;2886;49.722;8.612;2023-08-06T07:51:50;2.30;;;1.37;;
5722;SDS011;2886;49.722;8.612;2023-08-06T07:54:16;5.63;;;1.30;;
5722;SDS011;2886;49.722;8.612;2023-08-06T07:56:42;2.40;;;1.17;;
5722;SDS011;2886;49.722;8.612;2023-08-06T07:59:08;7.80;;;1.40;;
5722;SDS011;2886;49.722;8.612;2023-08-06T08:01:34;3.83;;;1.23;;
5722;SDS011;2886;49.722;8.612;2023-08-06T08:04:00;2.37;;;1.63;;
5722;SDS011;2886;49.722;8.612;2023-08-06T08:06:25;4.13;;;1.20;;
5722;SDS011;2886;49.722;8.612;2023-08-06T08:08:51;3.57;;;1.30;;
5722;SDS011;2886;49.722;8.612;2023-08-06T08:11:17;1.00;;;0.80;;
5722;SDS011;2886;49.722;8.612;2023-08-06T08:13:43;1.30;;;1.00;;
5722;SDS011;2886;49.722;8.612;2023-08-06T08:16:09;2.60;;;1.00;;
5722;SDS011;2886;49.722;8.612;2023-08-06T08:18:35;1.53;;;1.00;;
5722;SDS011;2886;49.722;8.612;2023-08-06T08:21:01;3.33;;;1.23;;
5722;SDS011;2886;49.722;8.612;2023-08-06T08:23:26;1.97;;;1.30;;
5722;SDS011;2886;49.722;8.612;2023-08-06T08:25:52;4.20;;;0.90;;
5722;SDS011;2886;49.722;8.612;2023-08-06T08:28:18;1.20;;;1.00;;
5722;SDS011;2886;49.722;8.612;2023-08-06T08:30:43;1.47;;;1.00;;
5722;SDS011;2886;49.722;8.612;2023-08-06T08:33:09;2.70;;;1.00;;
5722;SDS011;2886;49.722;8.612;2023-08-06T08:35:36;3.70;;;1.00;;
5722;SDS011;2886;49.722;8.612;2023-08-06T08:38:02;1.70;;;1.10;;
5722;SDS011;2886;49.722;8.612;2023-08-06T08:40:31;4.73;;;1.20;;
5722;SDS011;2886;49.722;8.612;2023-08-06T08:43:01;1.03;;;0.90;;
5722;SDS011;2886;49.722;8.612;2023-08-06T08:45:28;1.20;;;0.90;;
5722;SDS011;2886;49.722;8.612;2023-08-06T08:47:54;2.50;;;0.83;;
5722;SDS011;2886;49.722;8.612;2023-08-06T08:50:21;1.13;;;0.90;;
5722;SDS011;2886;49.722;8.612;2023-08-06T08:52:47;1.20;;;0.80;;
5722;SDS011;2886;49.722;8.612;2023-08-06T08:55:15;1.60;;;1.23;;
5722;SDS011;2886;49.722;8.612;2023-08-06T08:57:42;1.40;;;0.90;;
5722;SDS011;2886;49.722;8.612;2023-08-06T09:00:08;1.73;;;1.00;;
5722;SDS011;2886;49.722;8.612;2023-08-06T09:02:34;1.00;;;0.90;;
5722;SDS011;2886;49.722;8.612;2023-08-06T09:05:03;1.10;;;0.97;;
5722;SDS011;2886;49.722;8.612;2023-08-06T09:07:39;2.37;;;1.07;;
5722;SDS011;2886;49.722;8.612;2023-08-06T09:10:09;1.80;;;1.00;;
5722;SDS011;2886;49.722;8.612;2023-08-06T09:12:36;1.70;;;1.00;;
5722;SDS011;2886;49.722;8.612;2023-08-06T09:15:02;1.10;;;1.00;;
5722;SDS011;2886;49.722;8.612;2023-08-06T09:17:28;1.00;;;0.90;;
5722;SDS011;2886;49.722;8.612;2023-08-06T09:19:55;1.23;;;1.13;;
5722;SDS011;2886;49.722;8.612;2023-08-06T09:22:21;2.00;;;0.90;;
5722;SDS011;2886;49.722;8.612;2023-08-06T09:24:46;5.23;;;1.30;;
5722;SDS011;2886;49.722;8.612;2023-08-06T09:27:12;5.40;;;1.10;;
5722;SDS011;2886;49.722;8.612;2023-08-06T09:29:42;1.43;;;1.00;;
5722;SDS011;2886;49.722;8.612;2023-08-06T09:32:11;1.20;;;0.90;;
5722;SDS011;2886;49.722;8.612;2023-08-06T09:34:41;2.40;;;1.20;;
5722;SDS011;2886;49.722;8.612;2023-08-06T09:37:10;1.00;;;0.90;;
5722;SDS011;2886;49.722;8.612;2023-08-06T09:39:37;0.80;;;0.80;;
5722;SDS011;2886;49.722;8.612;2023-08-06T09:42:04;1.30;;;1.10;;
5722;SDS011;2886;49.722;8.612;2023-08-06T09:44:31;1.10;;;0.90;;
5722;SDS011;2886;49.722;8.612;2023-08-06T09:46:58;1.10;;;0.90;;
5722;SDS011;2886;49.722;8.612;2023-08-06T09:49:26;2.10;;;0.93;;
5722;SDS011;2886;49.722;8.612;2023-08-06T09:51:53;1.03;;;0.90;;
5722;SDS011;2886;49.722;8.612;2023-08-06T09:54:23;1.10;;;1.00;;
5722;SDS011;2886;49.722;8.612;2023-08-06T09:56:51;0.90;;;0.80;;
5722;SDS011;2886;49.722;8.612;2023-08-06T09:59:17;0.90;;;0.80;;
5722;SDS011;2886;49.722;8.612;2023-08-06T10:01:44;1.33;;;0.70;;
5722;SDS011;2886;49.722;8.612;2023-08-06T10:04:11;0.87;;;0.73;;
5722;SDS011;2886;49.722;8.612;2023-08-06T10:06:41;1.40;;;0.80;;
5722;SDS011;2886;49.722;8.612;2023-08-06T10:09:07;0.90;;;0.70;;
5722;SDS011;2886;49.722;8.612;2023-08-06T10:11:34;3.20;;;0.80;;
5722;SDS011;2886;49.722;8.612;2023-08-06T10:14:10;1.50;;;0.73;;
5722;SDS011;2886;49.722;8.612;2023-08-06T10:16:38;0.83;;;0.67;;
5722;SDS011;2886;49.722;8.612;2023-08-06T10:19:05;1.30;;;0.70;;
5722;SDS011;2886;49.722;8.612;2023-08-06T10:21:34;0.90;;;0.70;;
5722;SDS011;2886;49.722;8.612;2023-08-06T10:24:00;1.10;;;0.70;;
5722;SDS011;2886;49.722;8.612;2023-08-06T10:26:27;1.10;;;0.70;;
5722;SDS011;2886;49.722;8.612;2023-08-06T10:28:53;1.00;;;0.70;;
5722;SDS011;2886;49.722;8.612;2023-08-06T10:31:20;1.23;;;0.70;;
5722;SDS011;2886;49.722;8.612;2023-08-06T10:34:05;0.80;;;0.60;;
5722;SDS011;2886;49.722;8.612;2023-08-06T10:36:33;2.70;;;1.00;;
5722;SDS011;2886;49.722;8.612;2023-08-06T10:38:59;0.90;;;0.60;;
5722;SDS011;2886;49.722;8.612;2023-08-06T10:41:28;1.33;;;0.80;;
5722;SDS011;2886;49.722;8.612;2023-08-06T10:44:07;0.80;;;0.63;;
5722;SDS011;2886;49.722;8.612;2023-08-06T10:46:34;0.90;;;0.70;;
5722;SDS011;2886;49.722;8.612;2023-08-06T10:48:59;0.80;;;0.60;;
5722;SDS011;2886;49.722;8.612;2023-08-06T10:51:25;1.70;;;0.80;;
5722;SDS011;2886;49.722;8.612;2023-08-06T10:53:52;0.80;;;0.60;;
5722;SDS011;2886;49.722;8.612;2023-08-06T11:02:44;2.30;;;0.90;;
5722;SDS011;2886;49.722;8.612;2023-08-06T11:05:14;1.10;;;0.70;;
5722;SDS011;2886;49.722;8.612;2023-08-06T11:07:39;0.80;;;0.60;;
5722;SDS011;2886;49.722;8.612;2023-08-06T11:10:07;1.00;;;0.70;;
5722;SDS011;2886;49.722;8.612;2023-08-06T11:12:34;0.80;;;0.60;;
5722;SDS011;2886;49.722;8.612;2023-08-06T11:15:00;0.80;;;0.67;;
5722;SDS011;2886;49.722;8.612;2023-08-06T11:17:30;0.80;;;0.60;;
5722;SDS011;2886;49.722;8.612;2023-08-06T11:20:04;0.90;;;0.60;;
5722;SDS011;2886;49.722;8.612;2023-08-06T11:22:30;1.10;;;0.70;;
5722;SDS011;2886;49.722;8.612;2023-08-06T11:24:57;0.80;;;0.70;;
5722;SDS011;2886;49.722;8.612;2023-08-06T11:27:23;1.10;;;0.70;;
5722;SDS011;2886;49.722;8.612;2023-08-06T11:29:51;0.80;;;0.70;;
5722;SDS011;2886;49.722;8.612;2023-08-06T11:32:17;0.80;;;0.70;;
5722;SDS011;2886;49.722;8.612;2023-08-06T11:34:43;3.00;;;0.73;;
5722;SDS011;2886;49.722;8.612;2023-08-06T11:37:09;1.00;;;0.90;;
5722;SDS011;2886;49.722;8.612;2023-08-06T11:39:36;1.00;;;0.80;;
5722;SDS011;2886;49.722;8.612;2023-08-06T11:42:02;2.20;;;0.80;;
5722;SDS011;2886;49.722;8.612;2023-08-06T11:44:36;1.00;;;0.70;;
5722;SDS011;2886;49.722;8.612;2023-08-06T11:47:02;0.90;;;0.70;;
5722;SDS011;2886;49.722;8.612;2023-08-06T11:49:44;0.90;;;0.80;;
5722;SDS011;2886;49.722;8.612;2023-08-06T11:52:15;0.90;;;0.70;;
5722;SDS011;2886;49.722;8.612;2023-08-06T11:55:00;1.33;;;0.80;;
5722;SDS011;2886;49.722;8.612;2023-08-06T11:57:39;0.90;;;0.70;;
5722;SDS011;2886;49.722;8.612;2023-08-06T12:00:10;0.90;;;0.80;;
5722;SDS011;2886;49.722;8.612;2023-08-06T12:02:38;2.10;;;0.80;;
5722;SDS011;2886;49.722;8.612;2023-08-06T12:05:12;1.00;;;0.73;;
5722;SDS011;2886;49.722;8.612;2023-08-06T12:07:48;0.80;;;0.80;;
5722;SDS011;2886;49.722;8.612;2023-08-06T12:10:16;2.40;;;0.80;;
5722;SDS011;2886;49.722;8.612;2023-08-06T12:12:42;2.40;;;0.87;;
5722;SDS011;2886;49.722;8.612;2023-08-06T12:15:08;0.80;;;0.70;;
5722;SDS011;2886;49.722;8.612;2023-08-06T12:17:35;1.00;;;0.90;;
5722;SDS011;2886;49.722;8.612;2023-08-06T12:20:02;1.97;;;0.80;;
5722;SDS011;2886;49.722;8.612;2023-08-06T12:22:29;1.60;;;0.90;;
5722;SDS011;2886;49.722;8.612;2023-08-06T12:25:00;2.73;;;0.80;;
5722;SDS011;2886;49.722;8.612;2023-08-06T12:27:32;0.90;;;0.80;;
5722;SDS011;2886;49.722;8.612;2023-08-06T12:29:58;1.03;;;0.93;;
5722;SDS011;2886;49.722;8.612;2023-08-06T12:32:24;4.40;;;0.93;;
5722;SDS011;2886;49.722;8.612;2023-08-06T12:34:50;1.27;;;0.80;;
5722;SDS011;2886;49.722;8.612;2023-08-06T12:37:15;1.70;;;1.00;;
5722;SDS011;2886;49.722;8.612;2023-08-06T12:39:41;2.50;;;0.97;;
5722;SDS011;2886;49.722;8.612;2023-08-06T12:42:07;1.67;;;1.00;;
5722;SDS011;2886;49.722;8.612;2023-08-06T12:44:32;0.90;;;0.80;;
5722;SDS011;2886;49.722;8.612;2023-08-06T12:46:58;4.40;;;1.40;;
5722;SDS011;2886;49.722;8.612;2023-08-06T12:49:24;1.33;;;0.90;;
5722;SDS011;2886;49.722;8.612;2023-08-06T12:51:51;1.43;;;1.07;;
5722;SDS011;2886;49.722;8.612;2023-08-06T12:54:18;1.20;;;1.10;;
5722;SDS011;2886;49.722;8.612;2023-08-06T12:56:47;1.67;;;1.00;;
5722;SDS011;2886;49.722;8.612;2023-08-06T12:59:14;2.50;;;1.03;;
5722;SDS011;2886;49.722;8.612;2023-08-06T13:01:40;0.90;;;0.80;;
5722;SDS011;2886;49.722;8.612;2023-08-06T13:04:06;1.10;;;0.90;;
5722;SDS011;2886;49.722;8.612;2023-08-06T13:06:33;3.90;;;1.00;;
5722;SDS011;2886;49.722;8.612;2023-08-06T13:09:02;0.90;;;0.80;;
5722;SDS011;2886;49.722;8.612;2023-08-06T13:11:28;1.00;;;0.90;;
5722;SDS011;2886;49.722;8.612;2023-08-06T13:13:55;0.87;;;0.77;;
5722;SDS011;2886;49.722;8.612;2023-08-06T13:16:21;1.97;;;1.07;;
5722;SDS011;2886;49.722;8.612;2023-08-06T13:18:47;1.67;;;0.90;;
5722;SDS011;2886;49.722;8.612;2023-08-06T13:21:13;1.30;;;0.90;;
5722;SDS011;2886;49.722;8.612;2023-08-06T13:23:38;3.77;;;0.90;;
5722;SDS011;2886;49.722;8.612;2023-08-06T13:26:04;1.30;;;1.10;;
5722;SDS011;2886;49.722;8.612;2023-08-06T13:28:29;0.90;;;0.80;;
5722;SDS011;2886;49.722;8.612;2023-08-06T13:30:55;2.37;;;0.93;;
5722;SDS011;2886;49.722;8.612;2023-08-06T13:33:21;1.53;;;0.80;;
5722;SDS011;2886;49.722;8.612;2023-08-06T13:35:46;1.23;;;0.87;;
5722;SDS011;2886;49.722;8.612;2023-08-06T13:38:12;2.07;;;0.83;;
5722;SDS011;2886;49.722;8.612;2023-08-06T13:40:37;0.90;;;0.80;;
5722;SDS011;2886;49.722;8.612;2023-08-06T13:43:03;1.00;;;0.70;;
5722;SDS011;2886;49.722;8.612;2023-08-06T13:45:29;1.70;;;0.90;;
5722;SDS011;2886;49.722;8.612;2023-08-06T13:47:56;0.90;;;0.73;;
5722;SDS011;2886;49.722;8.612;2023-08-06T13:50:23;2.50;;;0.80;;
5722;SDS011;2886;49.722;8.612;2023-08-06T13:52:50;10.53;;;9.03;;
5722;SDS011;2886;49.722;8.612;2023-08-06T13:55:18;17.10;;;11.40;;
5722;SDS011;2886;49.722;8.612;2023-08-06T13:57:43;2.23;;;1.50;;
5722;SDS011;2886;49.722;8.612;2023-08-06T14:00:09;1.13;;;1.03;;
5722;SDS011;2886;49.722;8.612;2023-08-06T14:02:35;1.87;;;0.80;;
5722;SDS011;2886;49.722;8.612;2023-08-06T14:05:01;3.80;;;2.33;;
5722;SDS011;2886;49.722;8.612;2023-08-06T14:07:27;0.97;;;0.73;;
5722;SDS011;2886;49.722;8.612;2023-08-06T14:09:52;1.17;;;1.00;;
5722;SDS011;2886;49.722;8.612;2023-08-06T14:12:18;1.93;;;0.90;;
5722;SDS011;2886;49.722;8.612;2023-08-06T14:14:44;1.07;;;0.80;;
5722;SDS011;2886;49.722;8.612;2023-08-06T14:17:09;1.30;;;0.60;;
5722;SDS011;2886;49.722;8.612;2023-08-06T14:19:35;6.20;;;4.13;;
5722;SDS011;2886;49.722;8.612;2023-08-06T14:22:00;1.00;;;0.83;;
5722;SDS011;2886;49.722;8.612;2023-08-06T14:24:26;3.30;;;1.80;;
5722;SDS011;2886;49.722;8.612;2023-08-06T14:26:52;1.00;;;0.90;;
5722;SDS011;2886;49.722;8.612;2023-08-06T14:29:17;1.10;;;0.70;;
5722;SDS011;2886;49.722;8.612;2023-08-06T14:31:43;1.93;;;1.00;;
5722;SDS011;2886;49.722;8.612;2023-08-06T14:34:09;1.20;;;1.00;;
5722;SDS011;2886;49.722;8.612;2023-08-06T14:36:34;1.43;;;1.00;;
5722;SDS011;2886;49.722;8.612;2023-08-06T14:39:00;1.20;;;0.70;;
5722;SDS011;2886;49.722;8.612;2023-08-06T14:41:26;2.00;;;0.97;;
5722;SDS011;2886;49.722;8.612;2023-08-06T14:43:52;1.10;;;0.90;;
5722;SDS011;2886;49.722;8.612;2023-08-06T14:46:18;1.20;;;0.80;;
5722;SDS011;2886;49.722;8.612;2023-08-06T14:48:44;1.17;;;0.97;;
5722;SDS011;2886;49.722;8.612;2023-08-06T14:51:10;1.00;;;0.90;;
5722;SDS011;2886;49.722;8.612;2023-08-06T14:53:35;1.17;;;1.07;;
5722;SDS011;2886;49.722;8.612;2023-08-06T14:56:01;1.00;;;0.70;;
5722;SDS011;2886;49.722;8.612;2023-08-06T14:58:26;0.97;;;0.77;;
5722;SDS011;2886;49.722;8.612;2023-08-06T15:00:52;0.90;;;0.70;;
5722;SDS011;2886;49.722;8.612;2023-08-06T15:03:18;0.90;;;0.70;;
5722;SDS011;2886;49.722;8.612;2023-08-06T15:05:44;9.00;;;0.93;;
5722;SDS011;2886;49.722;8.612;2023-08-06T15:08:12;1.07;;;0.70;;
5722;SDS011;2886;49.722;8.612;2023-08-06T15:10:38;1.30;;;0.70;;
5722;SDS011;2886;49.722;8.612;2023-08-06T15:13:03;0.90;;;0.70;;
5722;SDS011;2886;49.722;8.612;2023-08-06T15:15:29;1.20;;;1.10;;
5722;SDS011;2886;49.722;8.612;2023-08-06T15:17:54;1.20;;;0.80;;
5722;SDS011;2886;49.722;8.612;2023-08-06T15:20:20;1.37;;;0.97;;
5722;SDS011;2886;49.722;8.612;2023-08-06T15:22:48;2.13;;;0.80;;
5722;SDS011;2886;49.722;8.612;2023-08-06T15:25:14;0.80;;;0.63;;
5722;SDS011;2886;49.722;8.612;2023-08-06T15:27:39;1.00;;;0.90;;